Time;durP1;ratioP1;P1;durP2;ratioP2;P2;SDS_P1;SDS_P2;PMS_P1;PMS_P2;Temp;Humidity;BMP_temperature;BMP_pressure;BME280_temperature;BME280_humidity;BME280_pressure;Samples;Min_cycle;Max_cycle;Signal;HPM_P1;HPM_P2
2022/03/18 00:00:56;;;;;;;184.80;43.10;;;;;;;1.15;55.52;101309.09;103545;1300;24311;-26
2022/03/18 00:03:25;;;;;;;151.90;38.90;;;;;;;1.12;55.65;101304.81;103550;1300;24279;-26
2022/03/18 00:05:51;;;;;;;66.70;22.00;;;;;;;1.13;55.61;101311.86;103514;1300;22911;-29
2022/03/18 00:08:17;;;;;;;86.30;21.70;;;;;;;1.11;55.64;101309.48;103480;1300;22627;-29
2022/03/18 00:10:44;;;;;;;75.50;21.10;;;;;;;1.11;55.80;101304.55;103539;1300;24396;-28
2022/03/18 00:13:10;;;;;;;60.50;18.90;;;;;;;1.10;55.79;101304.95;103577;1300;22513;-25
2022/03/18 00:15:37;;;;;;;90.60;26.30;;;;;;;1.10;55.71;101307.09;103482;1300;24256;-26
2022/03/18 00:18:02;;;;;;;52.90;16.90;;;;;;;1.05;55.88;101306.80;103543;1300;24648;-25
2022/03/18 00:20:28;;;;;;;48.90;19.60;;;;;;;1.06;55.79;101307.47;103467;1301;22658;-29
2022/03/18 00:22:54;;;;;;;59.50;17.80;;;;;;;1.04;55.96;101306.91;103531;1300;22500;-30
2022/03/18 00:25:20;;;;;;;42.70;16.20;;;;;;;0.99;56.05;101310.01;103290;1301;24340;-25
2022/03/18 00:27:46;;;;;;;35.40;16.80;;;;;;;0.95;56.25;101308.11;103562;1300;24220;-28
2022/03/18 00:30:13;;;;;;;40.60;13.90;;;;;;;0.93;56.23;101304.16;103534;1300;24301;-28
2022/03/18 00:32:40;;;;;;;32.70;14.60;;;;;;;0.94;56.02;101301.64;103528;1300;24345;-26
2022/03/18 00:35:07;;;;;;;48.40;13.60;;;;;;;0.90;56.17;101302.04;103557;1300;24298;-29
2022/03/18 00:37:35;;;;;;;29.90;11.70;;;;;;;0.86;56.43;101306.16;103609;1300;22611;-30
2022/03/18 00:40:01;;;;;;;32.70;12.20;;;;;;;0.81;56.43;101307.14;103585;1300;24294;-28
2022/03/18 00:42:26;;;;;;;21.70;10.00;;;;;;;0.74;56.95;101306.84;103636;1300;22508;-26
2022/03/18 00:44:52;;;;;;;27.80;11.70;;;;;;;0.69;57.13;101302.20;103581;1300;24211;-26
2022/03/18 00:52:18;;;;;;;34.40;13.70;;;;;;;0.52;57.99;101302.64;103559;1300;24403;-25
2022/03/18 00:54:44;;;;;;;33.80;17.10;;;;;;;0.51;58.03;101308.48;103561;1300;24997;-30
2022/03/18 00:57:10;;;;;;;28.10;13.50;;;;;;;0.51;57.91;101310.58;103529;1302;24437;-25
2022/03/18 00:59:37;;;;;;;51.40;17.80;;;;;;;0.49;57.88;101314.41;103512;1302;24352;-27
2022/03/18 01:02:03;;;;;;;145.80;47.40;;;;;;;0.48;57.93;101317.45;103612;1300;24304;-25
2022/03/18 01:04:30;;;;;;;21.90;9.70;;;;;;;0.47;57.87;101318.73;103591;1300;22522;-24
2022/03/18 01:06:56;;;;;;;172.80;54.50;;;;;;;0.47;57.69;101321.38;103521;1302;24240;-26
2022/03/18 01:09:22;;;;;;;20.20;8.80;;;;;;;0.49;57.59;101318.29;103545;1300;24395;-28
2022/03/18 01:11:49;;;;;;;16.40;9.00;;;;;;;0.50;57.62;101321.98;103575;1300;24255;-25
2022/03/18 01:14:16;;;;;;;35.20;11.00;;;;;;;0.48;57.73;101322.05;103640;1300;22501;-26
2022/03/18 01:16:42;;;;;;;26.60;11.40;;;;;;;0.48;57.72;101325.94;103554;1300;22724;-26
2022/03/18 01:19:08;;;;;;;22.90;10.80;;;;;;;0.45;57.64;101329.05;103490;1300;24407;-29
2022/03/18 01:21:35;;;;;;;30.00;13.80;;;;;;;0.46;57.52;101324.60;103587;1300;24282;-26
2022/03/18 01:24:01;;;;;;;25.80;10.50;;;;;;;0.48;57.34;101324.36;103553;1300;24214;-26
2022/03/18 01:26:28;;;;;;;26.30;9.80;;;;;;;0.48;57.16;101318.32;103634;1300;24304;-25
2022/03/18 01:28:54;;;;;;;24.70;10.00;;;;;;;0.50;57.05;101318.64;103576;1300;24237;-29
2022/03/18 01:31:21;;;;;;;21.10;9.90;;;;;;;0.49;56.97;101313.73;103580;1300;24339;-29
2022/03/18 01:33:47;;;;;;;41.90;13.30;;;;;;;0.49;56.70;101306.30;103670;1300;24210;-28
2022/03/18 01:36:13;;;;;;;24.00;10.40;;;;;;;0.51;56.52;101311.83;103652;1300;24368;-25
2022/03/18 01:38:39;;;;;;;27.60;10.90;;;;;;;0.50;56.31;101311.91;103608;1300;22505;-28
2022/03/18 01:41:05;;;;;;;29.00;12.30;;;;;;;0.51;56.23;101314.14;103614;1300;24279;-27
2022/03/18 01:43:41;;;;;;;24.30;10.40;;;;;;;0.49;56.43;101317.60;103583;1300;24291;-27
2022/03/18 01:46:07;;;;;;;22.30;10.00;;;;;;;0.49;56.23;101319.70;103573;1300;22684;-27
2022/03/18 01:48:34;;;;;;;19.90;9.20;;;;;;;0.49;56.36;101319.20;103552;1300;24286;-30
2022/03/18 01:51:00;;;;;;;18.30;9.30;;;;;;;0.45;56.34;101319.73;103529;1302;24274;-26
2022/03/18 01:53:26;;;;;;;20.10;10.00;;;;;;;0.42;56.52;101319.70;103563;1300;22660;-31
2022/03/18 01:55:54;;;;;;;32.80;11.10;;;;;;;0.38;56.68;101323.48;103530;1300;24312;-25
2022/03/18 01:58:21;;;;;;;18.40;8.60;;;;;;;0.37;56.49;101326.52;103575;1302;24299;-28
2022/03/18 02:00:47;;;;;;;14.90;7.80;;;;;;;0.35;56.58;101326.10;103600;1300;24225;-30
2022/03/18 02:03:13;;;;;;;21.70;10.20;;;;;;;0.34;56.72;101323.86;103601;1302;24441;-28
2022/03/18 02:05:40;;;;;;;22.40;9.80;;;;;;;0.29;56.87;101325.89;103600;1300;24247;-28
2022/03/18 02:08:08;;;;;;;15.90;8.10;;;;;;;0.27;57.19;101324.59;103558;1302;24237;-26
2022/03/18 02:10:34;;;;;;;15.70;8.10;;;;;;;0.25;57.18;101325.95;103652;1301;22595;-26
2022/03/18 02:13:00;;;;;;;22.30;10.30;;;;;;;0.22;57.19;101332.96;103583;1300;24288;-30
2022/03/18 02:15:26;;;;;;;18.90;9.00;;;;;;;0.22;57.25;101333.13;103511;1300;24229;-29
2022/03/18 02:17:52;;;;;;;19.10;9.90;;;;;;;0.23;57.26;101331.33;103510;1302;24303;-26
2022/03/18 02:20:17;;;;;;;21.80;10.80;;;;;;;0.21;57.44;101333.73;103535;1300;24234;-26
2022/03/18 02:22:43;;;;;;;18.30;9.50;;;;;;;0.19;57.43;101334.02;103587;1300;24246;-28
2022/03/18 02:25:12;;;;;;;19.20;9.50;;;;;;;0.17;57.33;101334.30;103634;1300;24217;-26
2022/03/18 02:27:38;;;;;;;21.40;9.10;;;;;;;0.17;57.25;101340.45;103576;1300;24247;-25
2022/03/18 02:30:06;;;;;;;27.40;9.40;;;;;;;0.17;57.24;101339.38;103505;1300;24478;-28
2022/03/18 02:32:32;;;;;;;15.30;8.80;;;;;;;0.17;56.89;101344.49;103611;1300;24357;-29
2022/03/18 02:34:58;;;;;;;18.20;8.40;;;;;;;0.17;56.92;101345.75;103550;1302;24222;-26
2022/03/18 02:37:23;;;;;;;16.70;8.50;;;;;;;0.17;56.97;101357.23;103520;1302;24263;-26
2022/03/18 02:39:49;;;;;;;23.60;8.60;;;;;;;0.16;57.16;101353.75;103490;1302;24240;-28
2022/03/18 02:42:15;;;;;;;15.70;7.90;;;;;;;0.15;56.88;101360.80;103558;1302;24222;-25
2022/03/18 02:44:41;;;;;;;16.80;8.40;;;;;;;0.15;56.94;101361.87;103600;1302;24432;-27
2022/03/18 02:47:07;;;;;;;15.90;8.60;;;;;;;0.13;56.89;101362.34;103591;1302;24298;-30
2022/03/18 02:49:32;;;;;;;18.90;9.10;;;;;;;0.12;57.10;101366.27;103557;1302;24249;-30
2022/03/18 02:51:58;;;;;;;19.50;8.50;;;;;;;0.10;57.04;101365.13;103547;1302;24320;-28
2022/03/18 02:54:24;;;;;;;28.30;10.50;;;;;;;0.09;57.00;101362.55;103568;1303;24352;-26
2022/03/18 02:56:50;;;;;;;19.00;8.70;;;;;;;0.08;57.03;101366.85;103471;1302;24301;-28
2022/03/18 02:59:15;;;;;;;25.80;11.80;;;;;;;0.08;57.09;101368.61;103509;1302;24214;-26
2022/03/18 03:01:41;;;;;;;23.50;10.50;;;;;;;0.07;57.06;101372.51;103558;1303;24282;-26
2022/03/18 03:04:06;;;;;;;14.40;8.20;;;;;;;0.06;57.16;101376.80;103524;1300;24236;-23
2022/03/18 03:09:02;;;;;;;42.50;20.10;;;;;;;0.01;57.25;101378.83;103530;1302;24304;-30
2022/03/18 03:11:29;;;;;;;16.50;9.70;;;;;;;0.01;57.34;101382.73;103539;1301;24222;-28
2022/03/18 03:13:55;;;;;;;22.30;9.40;;;;;;;0.03;56.90;101383.50;103528;1302;24231;-28
2022/03/18 03:16:21;;;;;;;22.70;10.10;;;;;;;0.02;57.27;101387.41;103598;1300;24255;-28
2022/03/18 03:18:46;;;;;;;38.30;9.40;;;;;;;0.02;57.07;101393.39;103540;1301;24329;-28
2022/03/18 03:21:13;;;;;;;17.00;8.60;;;;;;;0.04;56.97;101393.31;103571;1300;24268;-29
2022/03/18 03:23:39;;;;;;;20.70;10.00;;;;;;;0.04;56.78;101395.07;103608;1301;24282;-28
2022/03/18 03:26:04;;;;;;;18.90;9.10;;;;;;;0.00;56.85;101396.83;103530;1300;24215;-29
2022/03/18 03:28:30;;;;;;;21.20;11.20;;;;;;;-0.01;57.07;101397.96;103574;1302;24367;-26
2022/03/18 03:30:56;;;;;;;27.30;11.40;;;;;;;-0.01;56.98;101399.03;103574;1300;24400;-26
2022/03/18 03:33:21;;;;;;;18.70;9.80;;;;;;;-0.03;57.28;101404.75;103576;1301;24212;-26
2022/03/18 03:35:47;;;;;;;21.00;10.40;;;;;;;-0.06;57.25;101407.15;103537;1303;24322;-26
2022/03/18 03:38:14;;;;;;;24.20;11.50;;;;;;;-0.04;57.18;101410.45;103584;1300;24240;-26
2022/03/18 03:40:41;;;;;;;29.20;13.00;;;;;;;-0.07;57.17;101409.15;103527;1302;24247;-29
2022/03/18 03:43:08;;;;;;;25.10;11.80;;;;;;;-0.08;56.96;101417.86;103576;1301;24388;-28
2022/03/18 03:45:36;;;;;;;27.20;11.70;;;;;;;-0.07;56.66;101414.65;103609;1300;24198;-25
2022/03/18 03:48:02;;;;;;;22.50;11.00;;;;;;;-0.05;56.14;101415.73;103513;1303;24215;-25
2022/03/18 03:50:28;;;;;;;38.60;14.00;;;;;;;-0.03;56.06;101414.43;103468;1302;24244;-30
2022/03/18 03:52:53;;;;;;;36.60;15.20;;;;;;;-0.07;56.04;101418.51;103607;1303;24367;-27
2022/03/18 03:55:19;;;;;;;25.50;10.40;;;;;;;-0.06;55.85;101420.01;103532;1303;24241;-30
2022/03/18 03:57:45;;;;;;;22.80;10.40;;;;;;;-0.05;55.64;101422.77;103540;1303;24249;-25
2022/03/18 04:00:11;;;;;;;19.30;9.70;;;;;;;-0.06;55.54;101427.76;103600;1301;24429;-29
2022/03/18 04:02:37;;;;;;;35.30;10.70;;;;;;;-0.09;55.71;101435.50;103536;1302;24301;-25
2022/03/18 04:05:07;;;;;;;30.30;10.70;;;;;;;-0.08;55.62;101434.96;103525;1301;24279;-26
2022/03/18 04:07:35;;;;;;;22.40;10.80;;;;;;;-0.07;55.50;101435.42;103547;1300;24298;-27
2022/03/18 04:10:02;;;;;;;31.00;10.70;;;;;;;-0.06;55.15;101434.29;103544;1302;24397;-28
2022/03/18 04:12:29;;;;;;;32.30;14.20;;;;;;;-0.08;55.31;101434.78;103320;1303;331350;-29
2022/03/18 04:14:55;;;;;;;22.30;9.60;;;;;;;-0.10;55.51;101437.69;103527;1300;24240;-29
2022/03/18 04:17:22;;;;;;;22.00;11.10;;;;;;;-0.11;55.46;101432.77;103487;1303;24330;-30
2022/03/18 04:19:50;;;;;;;20.10;8.20;;;;;;;-0.09;55.08;101431.98;103562;1301;22601;-30
2022/03/18 04:22:15;;;;;;;25.90;11.10;;;;;;;-0.09;54.83;101434.45;103551;1302;24229;-29
2022/03/18 04:24:41;;;;;;;30.50;9.80;;;;;;;-0.10;54.93;101434.70;103481;1301;24267;-25
2022/03/18 04:27:07;;;;;;;28.40;12.00;;;;;;;-0.13;55.07;101432.54;103555;1303;24303;-30
2022/03/18 04:29:32;;;;;;;28.00;12.00;;;;;;;-0.16;55.02;101437.66;103592;1303;24368;-28
2022/03/18 04:31:59;;;;;;;20.30;9.50;;;;;;;-0.20;55.24;101438.70;103541;1301;22730;-31
2022/03/18 04:34:25;;;;;;;22.80;9.80;;;;;;;-0.20;55.13;101440.98;103604;1302;24317;-26
2022/03/18 04:36:50;;;;;;;23.60;9.10;;;;;;;-0.21;55.09;101443.53;103579;1303;24311;-30
2022/03/18 04:39:16;;;;;;;19.80;9.60;;;;;;;-0.22;54.98;101441.46;103546;1301;22501;-28
2022/03/18 04:41:42;;;;;;;26.80;11.50;;;;;;;-0.28;55.31;101445.45;103537;1302;24365;-28
2022/03/18 04:44:07;;;;;;;34.00;10.50;;;;;;;-0.31;55.55;101453.38;103527;1300;24219;-26
2022/03/18 04:46:33;;;;;;;18.70;9.90;;;;;;;-0.36;55.54;101451.66;103570;1301;24214;-25
2022/03/18 04:48:59;;;;;;;28.50;11.20;;;;;;;-0.38;55.65;101456.68;103515;1303;24267;-30
2022/03/18 04:51:25;;;;;;;29.10;12.50;;;;;;;-0.40;55.60;101458.77;103463;1300;24289;-27
2022/03/18 04:53:51;;;;;;;31.90;12.60;;;;;;;-0.46;55.69;101461.48;103572;1301;24409;-25
2022/03/18 04:58:46;;;;;;;30.00;10.90;;;;;;;-0.50;55.82;101467.45;103452;1302;22497;-28
2022/03/18 05:01:13;;;;;;;28.90;11.80;;;;;;;-0.51;56.06;101467.54;103463;1300;24349;-29
2022/03/18 05:03:40;;;;;;;29.00;10.90;;;;;;;-0.51;56.14;101474.40;103540;1303;24214;-25
2022/03/18 05:06:06;;;;;;;39.40;12.40;;;;;;;-0.54;56.51;101478.93;103510;1300;24476;-26
2022/03/18 05:08:33;;;;;;;27.90;12.30;;;;;;;-0.52;56.58;101476.38;103586;1302;24310;-26
2022/03/18 05:10:59;;;;;;;21.30;9.90;;;;;;;-0.42;56.25;101476.63;103537;1300;24243;-26
2022/03/18 05:13:25;;;;;;;35.20;11.90;;;;;;;-0.38;56.32;101474.98;103590;1303;24237;-26
2022/03/18 05:15:51;;;;;;;33.30;11.00;;;;;;;-0.38;56.27;101476.05;103532;1302;24289;-30
2022/03/18 05:18:17;;;;;;;24.20;10.90;;;;;;;-0.41;56.03;101479.23;103590;1303;24376;-30
2022/03/18 05:20:43;;;;;;;25.30;10.10;;;;;;;-0.50;56.28;101485.26;103436;1303;24349;-29
2022/03/18 05:23:08;;;;;;;19.90;9.80;;;;;;;-0.55;56.50;101481.80;103514;1303;24283;-26
2022/03/18 05:25:34;;;;;;;25.60;10.50;;;;;;;-0.59;56.83;101482.51;103601;1300;24240;-29
2022/03/18 05:28:00;;;;;;;24.80;10.00;;;;;;;-0.63;56.83;101494.30;103576;1303;24222;-29
2022/03/18 05:30:25;;;;;;;18.90;10.70;;;;;;;-0.68;56.94;101495.96;103473;1302;24248;-28
2022/03/18 05:32:51;;;;;;;33.50;11.10;;;;;;;-0.74;57.08;101495.55;103561;1301;24285;-28
2022/03/18 05:35:18;;;;;;;24.70;11.70;;;;;;;-0.72;57.11;101495.12;103565;1302;24246;-28
2022/03/18 05:37:44;;;;;;;21.40;10.60;;;;;;;-0.72;57.00;101495.44;103589;1302;24220;-26
2022/03/18 05:40:12;;;;;;;23.40;10.50;;;;;;;-0.71;57.01;101496.63;103606;1300;24253;-26
2022/03/18 05:42:37;;;;;;;22.50;10.40;;;;;;;-0.67;56.65;101494.55;103484;1302;24252;-28
2022/03/18 05:45:03;;;;;;;22.50;10.40;;;;;;;-0.69;56.92;101503.77;103519;1301;24263;-26
2022/03/18 05:47:30;;;;;;;27.00;12.20;;;;;;;-0.70;56.91;101501.52;103574;1301;22530;-25
2022/03/18 05:49:56;;;;;;;26.00;11.10;;;;;;;-0.72;56.99;101507.94;103511;1303;24245;-29
2022/03/18 05:52:22;;;;;;;21.60;9.70;;;;;;;-0.69;57.02;101512.02;103630;1300;24249;-30
2022/03/18 05:54:47;;;;;;;35.40;12.00;;;;;;;-0.64;57.07;101510.73;103562;1301;24279;-27
2022/03/18 05:57:13;;;;;;;20.60;10.40;;;;;;;-0.60;56.89;101506.85;103639;1300;22512;-28
2022/03/18 05:59:39;;;;;;;21.20;10.50;;;;;;;-0.60;57.01;101512.13;103586;1300;24308;-30
2022/03/18 06:02:04;;;;;;;23.70;11.10;;;;;;;-0.58;56.85;101515.39;103569;1300;24222;-28
2022/03/18 06:04:31;;;;;;;33.20;10.20;;;;;;;-0.55;56.89;101519.09;103617;1303;24381;-28
2022/03/18 06:06:57;;;;;;;20.00;8.70;;;;;;;-0.54;56.80;101522.42;103552;1303;24281;-26
2022/03/18 06:11:53;;;;;;;21.80;9.30;;;;;;;-0.45;56.36;101526.73;103600;1301;24282;-28
2022/03/18 06:14:20;;;;;;;21.00;10.60;;;;;;;-0.45;56.52;101525.67;103569;1300;24403;-30
2022/03/18 06:16:47;;;;;;;22.60;10.10;;;;;;;-0.40;56.51;101530.91;103583;1303;24214;-30
2022/03/18 06:19:15;;;;;;;19.90;10.00;;;;;;;-0.35;56.33;101532.23;103609;1300;24215;-29
2022/03/18 06:21:41;;;;;;;23.60;11.00;;;;;;;-0.31;56.07;101534.15;103554;1302;24262;-25
2022/03/18 06:24:09;;;;;;;30.40;10.80;;;;;;;-0.29;56.17;101536.34;103493;1302;24245;-28
2022/03/18 06:26:35;;;;;;;31.30;9.20;;;;;;;-0.23;55.42;101537.80;103550;1300;24246;-29
2022/03/18 06:29:01;;;;;;;20.70;10.00;;;;;;;-0.21;55.62;101534.20;103608;1301;24200;-28
2022/03/18 06:31:27;;;;;;;34.00;10.70;;;;;;;-0.17;55.59;101538.23;103588;1300;24227;-25
2022/03/18 06:33:53;;;;;;;19.20;8.90;;;;;;;-0.11;55.47;101536.66;103615;1300;24211;-28
2022/03/18 06:36:19;;;;;;;16.90;9.00;;;;;;;-0.08;54.89;101540.21;103548;1300;24249;-29
2022/03/18 06:38:44;;;;;;;19.50;8.60;;;;;;;-0.12;55.51;101541.48;103600;1301;24374;-28
2022/03/18 06:41:10;;;;;;;23.40;10.30;;;;;;;-0.09;55.46;101543.08;103554;1301;24299;-26
2022/03/18 06:43:36;;;;;;;45.80;11.30;;;;;;;-0.03;55.68;101545.10;103533;1300;24351;-26
2022/03/18 06:46:02;;;;;;;15.00;8.40;;;;;;;-0.01;55.58;101546.56;103531;1301;24266;-29
2022/03/18 06:48:28;;;;;;;23.30;11.00;;;;;;;0.04;55.60;101550.75;103487;1302;24250;-28
2022/03/18 06:50:54;;;;;;;21.40;11.10;;;;;;;0.12;55.38;101554.05;103567;1302;22872;-28
2022/03/18 06:53:20;;;;;;;21.30;10.00;;;;;;;0.17;55.39;101557.66;103346;1303;22517;-26
2022/03/18 06:55:46;;;;;;;17.20;9.80;;;;;;;0.20;55.45;101558.89;103521;1300;24285;-28
2022/03/18 06:58:11;;;;;;;31.20;9.70;;;;;;;0.30;55.59;101558.92;103636;1303;24307;-29
2022/03/18 07:00:39;;;;;;;16.80;8.90;;;;;;;0.36;55.40;101562.84;103461;1300;22535;-26
2022/03/18 07:03:05;;;;;;;27.50;10.60;;;;;;;0.40;55.35;101566.37;103579;1303;25421;-29
2022/03/18 07:05:32;;;;;;;20.40;10.00;;;;;;;0.52;55.13;101568.04;103544;1300;24212;-29
2022/03/18 07:07:58;;;;;;;22.20;11.10;;;;;;;0.58;54.69;101569.87;103556;1300;22624;-26
2022/03/18 07:10:24;;;;;;;19.40;9.60;;;;;;;0.60;54.50;101576.29;103540;1301;24177;-26
2022/03/18 07:12:51;;;;;;;21.70;8.30;;;;;;;0.64;54.28;101578.86;103556;1300;24175;-29
2022/03/18 07:15:17;;;;;;;33.40;10.10;;;;;;;0.74;53.78;101585.75;103507;1300;24245;-26
2022/03/18 07:20:13;;;;;;;13.80;8.60;;;;;;;0.81;52.76;101588.91;103561;1302;22511;-29
2022/03/18 07:22:39;;;;;;;24.40;9.90;;;;;;;0.85;52.65;101598.24;103540;1300;24356;-26
2022/03/18 07:25:05;;;;;;;22.20;11.20;;;;;;;0.87;53.11;101599.18;103600;1301;24211;-26
2022/03/18 07:27:31;;;;;;;21.00;10.30;;;;;;;0.93;52.71;101603.11;103447;1300;24177;-26
2022/03/18 07:29:57;;;;;;;25.40;11.90;;;;;;;0.96;53.07;101603.50;103512;1300;24430;-26
2022/03/18 07:32:23;;;;;;;32.00;13.50;;;;;;;1.07;53.04;101606.27;103526;1303;22501;-28
2022/03/18 07:34:49;;;;;;;29.00;12.70;;;;;;;1.12;52.53;101601.73;103555;1302;24250;-25
2022/03/18 07:37:15;;;;;;;23.30;11.00;;;;;;;1.24;52.13;101604.33;103455;1302;24372;-28
2022/03/18 07:39:40;;;;;;;18.40;10.30;;;;;;;1.23;52.23;101610.34;103525;1303;24240;-25
2022/03/18 07:42:06;;;;;;;24.60;9.70;;;;;;;1.43;51.63;101615.84;103526;1300;24274;-27
2022/03/18 07:44:34;;;;;;;20.70;10.30;;;;;;;1.46;52.05;101618.33;103599;1300;24244;-28
2022/03/18 07:47:00;;;;;;;29.50;11.60;;;;;;;1.59;51.15;101616.14;103570;1301;24310;-28
2022/03/18 07:49:26;;;;;;;17.40;11.00;;;;;;;1.71;50.89;101619.92;103554;1301;24309;-27
2022/03/18 07:51:52;;;;;;;21.10;9.00;;;;;;;1.75;50.94;101626.75;103539;1302;24386;-28
2022/03/18 07:54:17;;;;;;;22.80;9.70;;;;;;;1.85;50.56;101619.46;103467;1302;24295;-29
2022/03/18 07:56:43;;;;;;;16.80;9.70;;;;;;;1.90;50.09;101623.81;103520;1303;24215;-25
2022/03/18 07:59:09;;;;;;;23.30;10.80;;;;;;;1.92;50.07;101625.99;103479;1302;24385;-28
2022/03/18 08:01:35;;;;;;;33.20;8.90;;;;;;;2.10;49.92;101625.67;103486;1302;24263;-26
2022/03/18 08:04:01;;;;;;;23.00;11.10;;;;;;;2.16;49.78;101625.85;103600;1302;24339;-28
2022/03/18 08:06:27;;;;;;;26.70;8.90;;;;;;;2.26;49.91;101633.42;103537;1300;24364;-25
2022/03/18 08:08:53;;;;;;;16.40;10.50;;;;;;;2.38;49.75;101637.53;103553;1301;24310;-25
2022/03/18 08:11:21;;;;;;;18.80;9.90;;;;;;;2.45;48.95;101634.58;103446;1302;24313;-25
2022/03/18 08:13:49;;;;;;;19.90;9.10;;;;;;;2.48;48.62;101635.69;103526;1300;24301;-28
2022/03/18 08:16:15;;;;;;;18.00;10.70;;;;;;;2.51;48.20;101641.35;103512;1301;24485;-25
2022/03/18 08:18:41;;;;;;;17.90;10.20;;;;;;;2.51;48.18;101641.88;103571;1300;23830;-27
2022/03/18 08:21:06;;;;;;;22.50;12.20;;;;;;;2.57;48.08;101648.58;103525;1303;24286;-30
2022/03/18 08:23:33;;;;;;;16.60;9.50;;;;;;;2.64;48.54;101649.98;103676;1301;24327;-28
2022/03/18 08:25:59;;;;;;;18.30;10.90;;;;;;;2.77;47.73;101660.13;103527;1300;24358;-25
2022/03/18 08:28:25;;;;;;;21.30;8.70;;;;;;;2.87;47.42;101663.61;103609;1301;24240;-26
2022/03/18 08:30:51;;;;;;;21.40;9.70;;;;;;;2.97;46.76;101671.54;103582;1302;24344;-28
2022/03/18 08:33:17;;;;;;;12.60;9.30;;;;;;;3.07;46.98;101671.11;103545;1300;24310;-27
2022/03/18 08:35:42;;;;;;;24.40;9.60;;;;;;;3.19;47.24;101675.67;103556;1301;24334;-27
2022/03/18 08:38:09;;;;;;;15.70;8.30;;;;;;;3.37;46.71;101678.70;103419;1302;24249;-28
2022/03/18 08:40:36;;;;;;;21.30;8.40;;;;;;;3.59;46.64;101676.21;103471;1300;24246;-25
2022/03/18 08:43:04;;;;;;;19.30;9.70;;;;;;;3.88;46.91;101678.63;103550;1300;22502;-27
2022/03/18 08:45:30;;;;;;;17.10;8.90;;;;;;;4.08;46.13;101673.68;103620;1301;24309;-24
2022/03/18 08:47:57;;;;;;;14.60;9.00;;;;;;;4.17;45.62;101677.13;103644;1300;24220;-27
2022/03/18 08:50:23;;;;;;;22.30;10.10;;;;;;;4.52;46.30;101681.40;103566;1302;24304;-26
2022/03/18 08:52:51;;;;;;;23.70;12.80;;;;;;;4.66;45.95;101688.86;103644;1300;24188;-28
2022/03/18 08:55:17;;;;;;;17.60;10.20;;;;;;;4.97;45.60;101693.82;103480;1302;22557;-24
2022/03/18 08:57:43;;;;;;;21.40;10.40;;;;;;;5.18;45.17;101698.64;103540;1300;24191;-28
2022/03/18 09:00:11;;;;;;;22.00;11.30;;;;;;;5.35;44.78;101705.78;103671;1300;24375;-30
2022/03/18 09:02:38;;;;;;;24.40;12.50;;;;;;;5.53;43.95;101707.02;103606;1300;24469;-28
2022/03/18 09:05:07;;;;;;;22.60;12.30;;;;;;;5.60;45.37;101707.79;103584;1300;22492;-28
2022/03/18 09:07:33;;;;;;;23.80;11.50;;;;;;;5.82;43.99;101708.54;103532;1302;24216;-29
2022/03/18 09:10:00;;;;;;;21.20;10.50;;;;;;;5.77;43.49;101714.09;103587;1300;24362;-26
2022/03/18 09:12:26;;;;;;;23.70;12.00;;;;;;;5.83;43.75;101709.06;103584;1301;24255;-25
2022/03/18 09:14:52;;;;;;;26.90;12.50;;;;;;;5.83;43.73;101713.99;103639;1300;24661;-25
2022/03/18 09:17:18;;;;;;;22.60;11.40;;;;;;;5.82;44.41;101718.68;103565;1300;24408;-28
2022/03/18 09:19:44;;;;;;;27.90;13.70;;;;;;;5.97;43.91;101719.77;103622;1300;24223;-30
2022/03/18 09:22:10;;;;;;;35.00;10.50;;;;;;;6.06;43.44;101722.90;103581;1300;24299;-25
2022/03/18 09:24:36;;;;;;;29.70;12.40;;;;;;;5.82;43.64;101728.98;103461;1301;24450;-28
2022/03/18 09:27:02;;;;;;;19.00;11.30;;;;;;;5.89;44.08;101733.66;103578;1301;24215;-27
2022/03/18 09:29:28;;;;;;;37.80;15.30;;;;;;;5.87;43.43;101733.27;103470;1301;24304;-28
2022/03/18 09:31:54;;;;;;;35.20;12.10;;;;;;;5.51;43.05;101736.14;103659;1300;24304;-30
2022/03/18 09:34:24;;;;;;;21.30;9.10;;;;;;;5.35;43.95;101735.45;103547;1300;24245;-25
2022/03/18 09:36:52;;;;;;;17.30;10.20;;;;;;;5.49;43.83;101738.95;103494;1300;24235;-25
2022/03/18 09:39:18;;;;;;;45.60;13.70;;;;;;;5.96;43.06;101736.54;103541;1303;24232;-28
2022/03/18 09:41:44;;;;;;;21.80;10.60;;;;;;;5.89;42.87;101739.20;103398;1302;22633;-25
2022/03/18 09:44:10;;;;;;;24.90;11.40;;;;;;;5.58;43.96;101744.04;103543;1300;24253;-28
2022/03/18 09:46:37;;;;;;;23.30;10.80;;;;;;;5.37;43.93;101742.98;103557;1300;24296;-25
2022/03/18 09:49:05;;;;;;;19.90;9.60;;;;;;;5.08;44.11;101750.29;103559;1300;24214;-26
2022/03/18 09:51:32;;;;;;;30.50;12.00;;;;;;;5.01;44.43;101748.64;103619;1300;22513;-26
2022/03/18 09:53:59;;;;;;;25.20;10.90;;;;;;;5.53;44.18;101747.72;103483;1300;24246;-26
2022/03/18 09:56:24;;;;;;;38.10;16.30;;;;;;;5.51;44.43;101750.32;103490;1300;24205;-28
2022/03/18 09:58:50;;;;;;;22.80;11.10;;;;;;;5.64;42.83;101753.04;103541;1299;24284;-25
2022/03/18 10:01:16;;;;;;;21.10;11.10;;;;;;;5.66;43.76;101756.95;103548;1300;24285;-30
2022/03/18 10:03:42;;;;;;;21.50;10.10;;;;;;;6.21;42.18;101760.39;103626;1300;24195;-29
2022/03/18 10:06:11;;;;;;;29.90;13.60;;;;;;;6.12;42.08;101767.25;103596;1300;24244;-28
2022/03/18 10:08:53;;;;;;;18.40;9.90;;;;;;;6.18;42.03;101771.66;103579;1300;22895;-25
2022/03/18 10:11:23;;;;;;;19.40;9.40;;;;;;;6.06;41.90;101768.96;103437;1302;24227;-25
2022/03/18 10:13:52;;;;;;;22.90;10.90;;;;;;;6.16;41.70;101767.31;103632;1300;24211;-25
2022/03/18 10:16:25;;;;;;;16.10;9.80;;;;;;;6.59;41.83;101763.38;103580;1300;24217;-28
2022/03/18 10:18:51;;;;;;;14.60;10.30;;;;;;;6.90;41.67;101763.70;103543;1300;24006;-29
2022/03/18 10:21:17;;;;;;;21.30;11.60;;;;;;;7.43;40.08;101765.20;103558;1300;24200;-27
2022/03/18 10:23:43;;;;;;;18.30;11.50;;;;;;;7.60;39.63;101763.34;103582;1300;24446;-27
2022/03/18 10:26:08;;;;;;;19.70;10.00;;;;;;;7.70;38.87;101757.72;103522;1300;24263;-30
2022/03/18 10:28:36;;;;;;;24.60;11.50;;;;;;;7.81;39.05;101760.60;103473;1303;24304;-27
2022/03/18 10:31:08;;;;;;;27.40;11.20;;;;;;;7.87;39.19;101758.17;103550;1302;22496;-25
2022/03/18 10:38:56;;;;;;;16.70;11.30;;;;;;;8.57;36.45;101758.33;103562;1300;24226;-28
2022/03/18 10:41:23;;;;;;;26.40;10.60;;;;;;;8.15;36.14;101756.80;103555;1300;24218;-25
2022/03/18 10:43:51;;;;;;;14.20;9.20;;;;;;;7.91;37.86;101757.90;103570;1300;24246;-25
2022/03/18 10:46:16;;;;;;;15.20;9.50;;;;;;;8.44;37.36;101760.58;103584;1303;24347;-28
2022/03/18 10:49:01;;;;;;;20.20;10.40;;;;;;;8.90;36.63;101760.26;103544;1300;24236;-29
2022/03/18 10:51:27;;;;;;;14.40;9.30;;;;;;;9.09;34.99;101759.72;103584;1300;24993;-25
2022/03/18 10:53:55;;;;;;;18.30;10.00;;;;;;;8.84;34.83;101761.44;103558;1300;24250;-25
2022/03/18 10:56:21;;;;;;;12.90;9.00;;;;;;;8.65;35.21;101766.08;103601;1300;24327;-25
2022/03/18 10:58:46;;;;;;;18.90;9.40;;;;;;;8.35;34.95;101763.84;103428;1300;24250;-26
2022/03/18 11:01:12;;;;;;;19.20;9.60;;;;;;;8.15;35.05;101764.55;103511;1302;24239;-25
2022/03/18 11:03:38;;;;;;;13.60;8.90;;;;;;;7.90;35.71;101769.71;103564;1300;24300;-28
2022/03/18 11:06:04;;;;;;;13.70;9.70;;;;;;;8.14;36.16;101762.83;103559;1300;22500;-28
2022/03/18 11:08:35;;;;;;;17.90;9.90;;;;;;;8.85;35.43;101760.25;103560;1300;22839;-28
2022/03/18 11:13:36;;;;;;;10.80;8.00;;;;;;;9.67;34.63;101755.08;103532;1300;23957;-28
2022/03/18 11:16:02;;;;;;;14.60;8.90;;;;;;;9.73;34.42;101751.90;103557;1300;24399;-30
2022/03/18 11:18:29;;;;;;;14.50;8.50;;;;;;;10.21;34.25;101747.72;103536;1300;24245;-26
2022/03/18 11:20:56;;;;;;;13.20;6.60;;;;;;;10.21;32.95;101753.98;103671;1300;24215;-27
2022/03/18 11:23:23;;;;;;;14.30;9.60;;;;;;;9.52;32.99;101758.04;103583;1300;24209;-26
2022/03/18 11:25:51;;;;;;;18.10;8.60;;;;;;;9.81;32.59;101761.73;103587;1300;24242;-28
2022/03/18 11:28:18;;;;;;;14.40;8.80;;;;;;;9.20;33.05;101762.69;103587;1300;24224;-28